Time,TemperatureF,DewpointF,PressureIn,WindDirection,WindDirectionDegrees,WindSpeedMPH,WindSpeedGustMPH,Humidity,HourlyPrecipIn,Conditions,Clouds,dailyrainin,SoftwareType,DateUTC
2013-04-20 00:03:00,50.4,42.1,29.98,SW,225,1.7,-999.0,73,-99.99,,,0.00,Acu-Link.com,2013-04-20 07:03:00,
2013-04-20 00:19:00,50.4,42.1,29.97,SW,225,0.0,-999.0,73,-99.99,,,0.00,Acu-Link.com,2013-04-20 07:19:00,
2013-04-20 00:34:00,49.8,41.5,29.98,SW,225,1.1,-999.0,73,-99.99,,,0.00,Acu-Link.com,2013-04-20 07:34:00,
2013-04-20 00:49:00,49.1,40.8,29.97,SW,225,0.0,-999.0,73,-99.99,,,0.00,Acu-Link.com,2013-04-20 07:49:00,
2013-04-20 01:04:00,48.7,40.8,29.97,SW,225,1.1,-999.0,74,-99.99,,,0.00,Acu-Link.com,2013-04-20 08:04:00,
2013-04-20 01:20:00,48.7,40.8,29.96,SW,225,1.7,-999.0,74,-99.99,,,0.00,Acu-Link.com,2013-04-20 08:20:00,
2013-04-20 01:35:00,48.2,40.0,29.96,SW,225,0.0,-999.0,73,-99.99,,,0.00,Acu-Link.com,2013-04-20 08:35:00,
2013-04-20 01:50:00,47.5,39.3,29.95,SW,225,0.0,-999.0,73,-99.99,,,0.00,Acu-Link.com,2013-04-20 08:50:00,
2013-04-20 02:05:00,46.9,38.7,29.95,SW,225,1.1,-999.0,73,-99.99,,,0.00,Acu-Link.com,2013-04-20 09:05:00,
2013-04-20 02:21:00,47.5,39.3,29.94,SW,225,2.2,-999.0,73,-99.99,,,0.00,Acu-Link.com,2013-04-20 09:21:00,
2013-04-20 02:36:00,48.4,39.4,29.94,SW,225,1.7,-999.0,71,-99.99,,,0.00,Acu-Link.com,2013-04-20 09:36:00,
2013-04-20 02:51:00,48.6,38.9,29.93,SW,225,1.7,-999.0,69,-99.99,,,0.00,Acu-Link.com,2013-04-20 09:51:00,
2013-04-20 03:06:00,48.9,38.8,29.92,SW,225,0.0,-999.0,68,-99.99,,,0.00,Acu-Link.com,2013-04-20 10:06:00,
2013-04-20 03:21:00,49.1,38.2,29.92,SW,225,2.2,-999.0,66,-99.99,,,0.00,Acu-Link.com,2013-04-20 10:21:00,
2013-04-20 03:37:00,50.5,38.4,29.92,SW,225,1.7,-999.0,63,-99.99,,,0.00,Acu-Link.com,2013-04-20 10:37:00,
2013-04-20 03:52:00,50.2,37.7,29.92,SW,225,2.2,-999.0,62,-99.99,,,0.00,Acu-Link.com,2013-04-20 10:52:00,
2013-04-20 04:07:00,50.9,37.9,29.92,SW,225,1.1,-999.0,61,-99.99,,,0.00,Acu-Link.com,2013-04-20 11:07:00,
2013-04-20 04:22:00,50.0,37.1,29.92,SW,225,0.0,-999.0,61,-99.99,,,0.00,Acu-Link.com,2013-04-20 11:22:00,
2013-04-20 04:38:00,48.6,35.8,29.90,SW,225,1.7,-999.0,61,-99.99,,,0.00,Acu-Link.com,2013-04-20 11:38:00,
2013-04-20 04:53:00,47.8,35.4,29.89,SW,225,1.1,-999.0,62,-99.99,,,0.00,Acu-Link.com,2013-04-20 11:53:00,
2013-04-20 05:08:00,47.7,35.7,29.88,SW,225,0.0,-999.0,63,-99.99,,,0.00,Acu-Link.com,2013-04-20 12:08:00,
2013-04-20 05:23:00,47.1,35.6,29.88,SW,225,0.0,-999.0,64,-99.99,,,0.00,Acu-Link.com,2013-04-20 12:23:00,
2013-04-20 05:39:00,46.4,35.7,29.89,SW,225,0.0,-999.0,66,-99.99,,,0.00,Acu-Link.com,2013-04-20 12:39:00,
2013-04-20 05:54:00,45.5,35.6,29.88,SW,225,0.0,-999.0,68,-99.99,,,0.00,Acu-Link.com,2013-04-20 12:54:00,
2013-04-20 06:09:00,45.3,36.1,29.88,SW,225,1.7,-999.0,70,-99.99,,,0.00,Acu-Link.com,2013-04-20 13:09:00,
2013-04-20 06:24:00,45.0,35.8,29.88,SW,225,0.0,-999.0,70,-99.99,,,0.00,Acu-Link.com,2013-04-20 13:24:00,
2013-04-20 06:39:00,45.5,36.3,29.89,SW,225,0.0,-999.0,70,-99.99,,,0.00,Acu-Link.com,2013-04-20 13:39:00,
2013-04-20 06:55:00,46.0,36.8,29.90,SW,225,1.7,-999.0,70,-99.99,,,0.00,Acu-Link.com,2013-04-20 13:55:00,
2013-04-20 07:10:00,47.1,37.8,29.90,SW,225,1.1,-999.0,70,-99.99,,,0.00,Acu-Link.com,2013-04-20 14:10:00,
2013-04-20 07:25:00,48.6,38.9,29.90,SW,225,1.1,-999.0,69,-99.99,,,0.00,Acu-Link.com,2013-04-20 14:25:00,
2013-04-20 07:40:00,51.4,40.8,29.91,SW,225,1.1,-999.0,67,-99.99,,,0.00,Acu-Link.com,2013-04-20 14:40:00,
2013-04-20 07:56:00,55.2,42.8,29.90,SW,225,0.0,-999.0,63,-99.99,,,0.00,Acu-Link.com,2013-04-20 14:56:00,
2013-04-20 08:11:00,60.6,46.2,29.90,SW,225,0.0,-999.0,59,-99.99,,,0.00,Acu-Link.com,2013-04-20 15:11:00,
2013-04-20 08:26:00,66.0,49.4,29.90,ESE,112,1.7,-999.0,55,-99.99,,,0.00,Acu-Link.com,2013-04-20 15:26:00,
2013-04-20 08:41:00,70.3,51.8,29.90,ESE,112,1.1,-999.0,52,-99.99,,,0.00,Acu-Link.com,2013-04-20 15:41:00,
2013-04-20 08:56:00,69.8,50.3,29.92,SSE,157,3.2,-999.0,50,-99.99,,,0.00,Acu-Link.com,2013-04-20 15:56:00,
2013-04-20 09:12:00,70.0,50.0,29.92,South,180,4.2,-999.0,49,-99.99,,,0.00,Acu-Link.com,2013-04-20 16:12:00,
2013-04-20 09:27:00,72.5,51.7,29.92,SSW,202,3.2,-999.0,48,-99.99,,,0.00,Acu-Link.com,2013-04-20 16:27:00,
2013-04-20 09:42:00,74.3,52.2,29.93,SE,135,2.2,-999.0,46,-99.99,,,0.00,Acu-Link.com,2013-04-20 16:42:00,
2013-04-20 09:57:00,73.8,51.1,29.92,South,180,4.2,-999.0,45,-99.99,,,0.00,Acu-Link.com,2013-04-20 16:57:00,
2013-04-20 10:12:00,74.5,51.1,29.93,South,180,5.8,-999.0,44,-99.99,,,0.00,Acu-Link.com,2013-04-20 17:12:00,
2013-04-20 10:28:00,77.4,53.8,29.92,SSE,157,3.7,-999.0,44,-99.99,,,0.00,Acu-Link.com,2013-04-20 17:28:00,
2013-04-20 10:43:00,77.2,53.0,29.93,South,180,5.3,-999.0,43,-99.99,,,0.00,Acu-Link.com,2013-04-20 17:43:00,
2013-04-20 10:58:00,80.2,55.0,29.92,SSW,202,4.7,-999.0,42,-99.99,,,0.00,Acu-Link.com,2013-04-20 17:58:00,
2013-04-20 11:13:00,80.8,54.9,29.91,SSE,157,6.8,-999.0,41,-99.99,,,0.00,Acu-Link.com,2013-04-20 18:13:00,
2013-04-20 11:28:00,82.6,55.8,29.91,SSW,202,4.7,-999.0,40,-99.99,,,0.00,Acu-Link.com,2013-04-20 18:28:00,
2013-04-20 11:44:00,83.1,55.5,29.90,SSE,157,6.8,-999.0,39,-99.99,,,0.00,Acu-Link.com,2013-04-20 18:44:00,
2013-04-20 11:59:00,86.5,57.8,29.89,South,180,5.8,-999.0,38,-99.99,,,0.00,Acu-Link.com,2013-04-20 18:59:00,
2013-04-20 12:14:00,85.8,56.5,29.89,SW,225,4.2,-999.0,37,-99.99,,,0.00,Acu-Link.com,2013-04-20 19:14:00,
2013-04-20 12:29:00,81.9,53.8,29.88,SSE,157,5.8,-999.0,38,-99.99,,,0.00,Acu-Link.com,2013-04-20 19:29:00,
2013-04-20 12:45:00,79.9,54.1,29.88,South,180,7.3,-999.0,41,-99.99,,,0.00,Acu-Link.com,2013-04-20 19:45:00,
2013-04-20 13:00:00,77.9,53.6,29.89,SE,135,6.3,-999.0,43,-99.99,,,0.00,Acu-Link.com,2013-04-20 20:00:00,
2013-04-20 13:15:00,77.2,54.2,29.89,South,180,8.9,-999.0,45,-99.99,,,0.00,Acu-Link.com,2013-04-20 20:15:00,
2013-04-20 13:30:00,76.8,53.8,29.89,SW,225,8.9,-999.0,45,-99.99,,,0.00,Acu-Link.com,2013-04-20 20:30:00,
2013-04-20 13:45:00,79.2,55.4,29.88,NNW,337,4.2,-999.0,44,-99.99,,,0.00,Acu-Link.com,2013-04-20 20:45:00,
2013-04-20 14:01:00,80.2,55.7,29.86,West,270,7.8,-999.0,43,-99.99,,,0.00,Acu-Link.com,2013-04-20 21:01:00,
2013-04-20 14:16:00,80.1,55.6,29.87,SW,225,5.8,-999.0,43,-99.99,,,0.00,Acu-Link.com,2013-04-20 21:16:00,
2013-04-20 14:31:00,79.5,54.4,29.85,South,180,7.8,-999.0,42,-99.99,,,0.00,Acu-Link.com,2013-04-20 21:31:00,
2013-04-20 14:46:00,78.8,52.4,29.86,South,180,7.3,-999.0,40,-99.99,,,0.00,Acu-Link.com,2013-04-20 21:46:00,
2013-04-20 15:01:00,77.4,51.2,29.87,WSW,247,9.9,-999.0,40,-99.99,,,0.00,Acu-Link.com,2013-04-20 22:01:00,
2013-04-20 15:17:00,77.5,51.3,29.86,South,180,7.3,-999.0,40,-99.99,,,0.00,Acu-Link.com,2013-04-20 22:17:00,
2013-04-20 15:32:00,78.3,52.0,29.85,SW,225,7.3,-999.0,40,-99.99,,,0.00,Acu-Link.com,2013-04-20 22:32:00,
2013-04-20 15:47:00,78.4,52.1,29.86,SSW,202,6.3,-999.0,40,-99.99,,,0.00,Acu-Link.com,2013-04-20 22:47:00,
2013-04-20 16:02:00,79.0,52.6,29.85,SW,225,6.8,-999.0,40,-99.99,,,0.00,Acu-Link.com,2013-04-20 23:02:00,
2013-04-20 16:17:00,80.1,52.9,29.85,South,180,6.8,-999.0,39,-99.99,,,0.00,Acu-Link.com,2013-04-20 23:17:00,
2013-04-20 16:33:00,79.5,52.4,29.85,SSE,157,5.3,-999.0,39,-99.99,,,0.00,Acu-Link.com,2013-04-20 23:33:00,
2013-04-20 16:48:00,78.6,51.6,29.85,West,270,6.8,-999.0,39,-99.99,,,0.00,Acu-Link.com,2013-04-20 23:48:00,
2013-04-20 17:03:00,78.6,51.6,29.85,South,180,4.2,-999.0,39,-99.99,,,0.00,Acu-Link.com,2013-04-21 00:03:00,
2013-04-20 17:18:00,77.7,50.8,29.84,South,180,4.2,-999.0,39,-99.99,,,0.00,Acu-Link.com,2013-04-21 00:18:00,
2013-04-20 17:34:00,76.1,50.0,29.85,SW,225,2.7,-999.0,40,-99.99,,,0.00,Acu-Link.com,2013-04-21 00:34:00,
2013-04-20 17:49:00,75.2,49.2,29.85,SW,225,4.7,-999.0,40,-99.99,,,0.00,Acu-Link.com,2013-04-21 00:49:00,
2013-04-20 18:04:00,73.6,48.4,29.84,SW,225,3.7,-999.0,41,-99.99,,,0.00,Acu-Link.com,2013-04-21 01:04:00,
2013-04-20 18:19:00,72.5,48.1,29.85,SSW,202,3.2,-999.0,42,-99.99,,,0.00,Acu-Link.com,2013-04-21 01:19:00,
2013-04-20 18:34:00,71.1,48.7,29.86,SSE,157,3.7,-999.0,45,-99.99,,,0.00,Acu-Link.com,2013-04-21 01:34:00,
2013-04-20 18:50:00,69.8,48.7,29.85,SW,225,3.2,-999.0,47,-99.99,,,0.00,Acu-Link.com,2013-04-21 01:50:00,
2013-04-20 19:05:00,69.4,48.8,29.85,SW,225,1.7,-999.0,48,-99.99,,,0.00,Acu-Link.com,2013-04-21 02:05:00,
2013-04-20 19:20:00,68.9,48.4,29.87,SW,225,0.0,-999.0,48,-99.99,,,0.00,Acu-Link.com,2013-04-21 02:20:00,
2013-04-20 19:35:00,67.5,48.2,29.86,SW,225,0.0,-999.0,50,-99.99,,,0.00,Acu-Link.com,2013-04-21 02:35:00,
2013-04-20 19:50:00,65.7,47.6,29.87,SW,225,0.0,-999.0,52,-99.99,,,0.00,Acu-Link.com,2013-04-21 02:50:00,
2013-04-20 20:06:00,64.8,47.8,29.88,SW,225,0.0,-999.0,54,-99.99,,,0.00,Acu-Link.com,2013-04-21 03:06:00,
2013-04-20 20:21:00,63.3,47.3,29.88,SW,225,0.0,-999.0,56,-99.99,,,0.00,Acu-Link.com,2013-04-21 03:21:00,
2013-04-20 20:36:00,61.9,47.4,29.88,SW,225,1.1,-999.0,59,-99.99,,,0.00,Acu-Link.com,2013-04-21 03:36:00,
2013-04-20 20:51:00,61.2,47.6,29.88,SW,225,0.0,-999.0,61,-99.99,,,0.00,Acu-Link.com,2013-04-21 03:51:00,
2013-04-20 21:06:00,60.6,47.9,29.87,SW,225,0.0,-999.0,63,-99.99,,,0.00,Acu-Link.com,2013-04-21 04:06:00,
2013-04-20 21:22:00,59.4,47.2,29.88,SW,225,2.2,-999.0,64,-99.99,,,0.00,Acu-Link.com,2013-04-21 04:22:00,
2013-04-20 21:37:00,58.6,47.3,29.89,SW,225,1.7,-999.0,66,-99.99,,,0.00,Acu-Link.com,2013-04-21 04:37:00,
2013-04-20 21:52:00,58.1,47.2,29.90,SW,225,1.1,-999.0,67,-99.99,,,0.00,Acu-Link.com,2013-04-21 04:52:00,
2013-04-20 22:07:00,57.9,47.0,29.90,SW,225,0.0,-999.0,67,-99.99,,,0.00,Acu-Link.com,2013-04-21 05:07:00,
2013-04-20 22:23:00,57.0,46.5,29.90,SW,225,0.0,-999.0,68,-99.99,,,0.00,Acu-Link.com,2013-04-21 05:23:00,
2013-04-20 22:38:00,55.9,45.5,29.91,SW,225,2.2,-999.0,68,-99.99,,,0.00,Acu-Link.com,2013-04-21 05:38:00,
2013-04-20 22:53:00,55.6,45.6,29.91,SW,225,1.1,-999.0,69,-99.99,,,0.00,Acu-Link.com,2013-04-21 05:53:00,
2013-04-20 23:08:00,55.6,45.2,29.91,SW,225,1.7,-999.0,68,-99.99,,,0.00,Acu-Link.com,2013-04-21 06:08:00,
2013-04-20 23:23:00,56.8,46.0,29.91,SW,225,1.7,-999.0,67,-99.99,,,0.00,Acu-Link.com,2013-04-21 06:23:00,
2013-04-20 23:39:00,56.8,45.6,29.91,SW,225,0.0,-999.0,66,-99.99,,,0.00,Acu-Link.com,2013-04-21 06:39:00,
2013-04-20 23:54:00,55.9,44.7,29.91,SW,225,1.7,-999.0,66,-99.99,,,0.00,Acu-Link.com,2013-04-21 06:54:00,